Terminal Aerodrome Forecast
Issued by NWS

Home | Current Version | Previous Version | Text Only | Print | Product List | Glossary On
Versions: 1 2 3 4 5 6 7 8 9 10 11 12 13 14 15 16 17 18 19
903
FTUS41 KCAR 071905 AAE
TAFHUL
TAF AMD
KHUL 071905Z 0719/0818 16004KT P6SM -SN OVC040
     FM072000 16005KT P6SM OVC050
     FM080800 22005KT P6SM BKN060=

USA.gov is the U.S. government's official web portal to all federal, state and local government web resources and services.